createdAt,value
2022-12-27T00:01:29.483Z,5.27
2022-12-27T00:03:56.321Z,5.26
2022-12-27T00:06:23.762Z,5.28
2022-12-27T00:08:50.360Z,5.25
2022-12-27T00:11:19.425Z,5.42
2022-12-27T00:13:46.161Z,5.30
2022-12-27T00:16:14.023Z,5.31
2022-12-27T00:18:41.060Z,5.31
2022-12-27T00:21:08.128Z,5.35
2022-12-27T00:23:37.240Z,5.30
2022-12-27T00:26:04.768Z,5.27
2022-12-27T00:28:32.142Z,5.39
2022-12-27T00:30:58.973Z,5.39
2022-12-27T00:33:25.742Z,5.35
2022-12-27T00:35:52.169Z,5.13
2022-12-27T00:38:18.683Z,5.19
2022-12-27T00:40:45.015Z,4.88
2022-12-27T00:43:11.466Z,5.27
2022-12-27T00:45:37.856Z,5.30
2022-12-27T00:48:04.475Z,5.39
2022-12-27T00:50:31.211Z,5.34
2022-12-27T00:52:57.658Z,5.25
2022-12-27T00:55:24.047Z,5.24
2022-12-27T00:57:50.440Z,5.22
2022-12-27T01:00:16.998Z,5.17
2022-12-27T01:02:43.397Z,5.24
2022-12-27T01:05:09.904Z,5.25
2022-12-27T01:07:36.292Z,5.31
2022-12-27T01:10:02.761Z,5.36
2022-12-27T01:12:32.478Z,5.30
2022-12-27T01:14:58.769Z,5.31
2022-12-27T01:17:25.116Z,5.26
2022-12-27T01:19:51.515Z,5.14
2022-12-27T01:22:17.851Z,5.12
2022-12-27T01:24:44.161Z,5.06
2022-12-27T01:27:10.518Z,4.89
2022-12-27T01:29:36.826Z,4.91
2022-12-27T01:32:03.168Z,4.84
2022-12-27T01:34:29.612Z,4.91
2022-12-27T01:36:55.994Z,4.92
2022-12-27T01:39:22.342Z,4.92
2022-12-27T01:42:07.488Z,4.91
2022-12-27T01:44:40.013Z,4.96
2022-12-27T01:47:14.250Z,4.91
2022-12-27T01:49:41.945Z,4.87
2022-12-27T01:52:09.481Z,4.88
2022-12-27T01:54:36.028Z,4.76
2022-12-27T01:57:02.799Z,4.68
2022-12-27T01:59:34.330Z,4.70
2022-12-27T02:02:07.335Z,4.73
2022-12-27T02:04:36.107Z,4.60
2022-12-27T02:07:05.251Z,4.45
2022-12-27T02:09:38.720Z,4.28
2022-12-27T02:12:09.738Z,4.41
2022-12-27T02:14:47.562Z,4.59
2022-12-27T02:17:22.486Z,4.77
2022-12-27T02:19:56.033Z,4.92
2022-12-27T02:23:07.379Z,5.01
2022-12-27T02:25:50.511Z,5.05
2022-12-27T02:28:22.210Z,5.08
2022-12-27T02:30:55.492Z,5.14
2022-12-27T02:33:32.789Z,5.16
2022-12-27T02:36:07.533Z,5.20
2022-12-27T02:38:37.389Z,5.20
2022-12-27T02:41:28.915Z,5.24
2022-12-27T02:44:25.295Z,5.27
2022-12-27T02:47:16.772Z,5.27
2022-12-27T02:50:03.575Z,5.32
2022-12-27T02:52:59.926Z,5.35
2022-12-27T02:56:07.123Z,5.41
2022-12-27T02:58:41.157Z,5.40
2022-12-27T03:01:36.697Z,5.40
2022-12-27T03:04:05.576Z,5.38
2022-12-27T03:06:42.250Z,5.38
2022-12-27T03:09:52.227Z,5.36
2022-12-27T03:12:43.329Z,5.39
2022-12-27T03:15:48.327Z,5.41
2022-12-27T03:18:19.183Z,5.40
2022-12-27T03:21:05.482Z,5.39
2022-12-27T03:23:51.594Z,5.41
2022-12-27T03:26:19.426Z,5.44
2022-12-27T03:29:05.203Z,5.44
2022-12-27T03:31:53.867Z,5.50
2022-12-27T03:34:31.886Z,5.48
2022-12-27T03:37:37.034Z,5.49
2022-12-27T03:40:06.882Z,5.52
2022-12-27T03:42:55.884Z,5.53
2022-12-27T03:45:42.618Z,5.57
2022-12-27T03:48:10.933Z,5.57
2022-12-27T03:50:49.050Z,5.57
2022-12-27T03:53:18.805Z,5.56
2022-12-27T03:55:45.310Z,5.59
2022-12-27T03:58:11.933Z,5.53
2022-12-27T04:00:39.076Z,5.57
2022-12-27T04:03:05.604Z,5.54
2022-12-27T04:05:32.022Z,5.53
2022-12-27T04:08:17.110Z,5.52
2022-12-27T04:11:02.442Z,5.50
2022-12-27T04:13:47.649Z,5.50
2022-12-27T04:16:32.956Z,5.55
2022-12-27T04:19:18.354Z,5.55
2022-12-27T04:22:03.552Z,5.56
2022-12-27T04:24:48.785Z,5.57
2022-12-27T04:27:33.854Z,5.56
2022-12-27T04:30:19.123Z,5.60
2022-12-27T04:33:04.259Z,5.58
2022-12-27T04:35:30.734Z,5.55
2022-12-27T04:37:57.440Z,5.59
2022-12-27T04:40:42.536Z,5.61
2022-12-27T04:43:27.750Z,5.64
2022-12-27T04:46:13.056Z,5.64
2022-12-27T04:48:58.289Z,5.61
2022-12-27T04:51:43.748Z,5.63
2022-12-27T04:54:49.186Z,5.63
2022-12-27T04:57:35.963Z,5.71
2022-12-27T05:00:22.660Z,5.70
2022-12-27T05:02:56.832Z,5.70
2022-12-27T05:05:25.631Z,5.72
2022-12-27T05:08:23.461Z,5.77
2022-12-27T05:11:08.631Z,5.78
2022-12-27T05:13:53.834Z,5.78
2022-12-27T05:16:20.272Z,5.83
2022-12-27T05:18:46.741Z,5.82
2022-12-27T05:21:13.250Z,5.77
2022-12-27T05:24:04.898Z,5.74
2022-12-27T05:26:32.627Z,5.71
2022-12-27T05:28:59.352Z,5.62
2022-12-27T05:31:26.893Z,5.66
2022-12-27T05:33:53.532Z,5.60
2022-12-27T05:36:20.329Z,5.61
2022-12-27T05:38:47.080Z,5.63
2022-12-27T05:41:13.408Z,5.68
2022-12-27T05:43:39.994Z,5.71
2022-12-27T05:46:13.828Z,5.73
2022-12-27T05:48:40.677Z,5.69
2022-12-27T05:51:11.653Z,5.69
2022-12-27T05:53:38.219Z,5.64
2022-12-27T05:56:04.608Z,5.66
2022-12-27T05:58:31.348Z,5.65
2022-12-27T06:00:58.292Z,5.67
2022-12-27T06:03:25.028Z,5.71
2022-12-27T06:05:51.433Z,5.70
2022-12-27T06:08:17.812Z,5.74
2022-12-27T06:10:44.221Z,5.70
2022-12-27T06:13:10.529Z,5.63
2022-12-27T06:15:36.871Z,5.58
2022-12-27T06:18:03.584Z,5.62
2022-12-27T06:20:30.247Z,5.55
2022-12-27T06:22:58.204Z,5.54
2022-12-27T06:25:24.504Z,5.62
2022-12-27T06:27:50.813Z,5.64
2022-12-27T06:30:17.295Z,5.67
2022-12-27T06:32:43.584Z,5.65
2022-12-27T06:35:11.105Z,5.54
2022-12-27T06:37:37.396Z,5.63
2022-12-27T06:40:03.965Z,5.60
2022-12-27T06:42:30.760Z,5.61
2022-12-27T06:44:57.108Z,5.56
2022-12-27T06:47:23.526Z,5.56
2022-12-27T06:49:50.020Z,5.54
2022-12-27T06:52:16.633Z,5.49
2022-12-27T06:54:42.996Z,5.48
2022-12-27T06:57:09.327Z,5.34
2022-12-27T06:59:35.701Z,5.30
2022-12-27T07:02:02.240Z,5.26
2022-12-27T07:04:28.744Z,5.23
2022-12-27T07:06:55.105Z,5.24
2022-12-27T07:09:21.426Z,5.19
2022-12-27T07:11:47.925Z,5.21
2022-12-27T07:14:14.295Z,5.08
2022-12-27T07:16:40.679Z,4.79
2022-12-27T07:19:07.064Z,4.76
2022-12-27T07:21:33.447Z,4.76
2022-12-27T07:23:59.866Z,4.73
2022-12-27T07:26:29.660Z,4.76
2022-12-27T07:28:57.644Z,4.87
2022-12-27T07:31:26.316Z,4.94
2022-12-27T07:33:52.921Z,4.94
2022-12-27T07:36:39.083Z,4.91
2022-12-27T07:39:24.071Z,4.97
2022-12-27T07:42:08.961Z,5.03
2022-12-27T07:44:48.731Z,5.04
2022-12-27T07:47:18.464Z,5.10
2022-12-27T07:49:48.057Z,5.10
2022-12-27T07:52:25.927Z,5.13
2022-12-27T07:54:54.708Z,5.23
2022-12-27T07:57:44.472Z,5.21
2022-12-27T08:00:31.669Z,5.10
2022-12-27T08:03:08.057Z,5.12
2022-12-27T08:05:57.484Z,5.17
2022-12-27T08:08:45.767Z,5.19
2022-12-27T08:11:14.414Z,5.18
2022-12-27T08:13:59.121Z,5.23
2022-12-27T08:16:48.868Z,5.21
2022-12-27T08:19:34.311Z,5.21
2022-12-27T08:22:09.723Z,5.18
2022-12-27T08:24:48.612Z,5.24
2022-12-27T08:27:41.602Z,5.20
2022-12-27T08:30:42.147Z,5.29
2022-12-27T08:33:29.255Z,5.36
2022-12-27T08:36:45.068Z,5.35
2022-12-27T08:39:22.696Z,5.35
2022-12-27T08:42:15.699Z,5.41
2022-12-27T08:45:05.946Z,5.45
2022-12-27T08:47:59.446Z,5.52
2022-12-27T08:50:50.602Z,5.58
2022-12-27T08:53:29.150Z,5.65
2022-12-27T08:55:59.171Z,5.70
2022-12-27T08:58:48.227Z,5.77
2022-12-27T09:01:18.182Z,5.81
2022-12-27T09:03:48.288Z,5.81
2022-12-27T09:06:19.209Z,5.86
2022-12-27T09:08:46.454Z,5.87
2022-12-27T09:11:18.000Z,5.97
2022-12-27T09:13:46.144Z,6.02
2022-12-27T09:16:19.932Z,6.08
2022-12-27T09:18:49.626Z,6.07
2022-12-27T09:21:21.171Z,6.11
2022-12-27T09:23:49.157Z,6.20
2022-12-27T09:26:19.659Z,6.27
2022-12-27T09:28:47.387Z,6.34
2022-12-27T09:31:14.921Z,6.37
2022-12-27T09:34:03.103Z,6.41
2022-12-27T09:36:33.345Z,6.47
2022-12-27T09:39:03.828Z,6.50
2022-12-27T09:45:00.861Z,6.61
2022-12-27T09:47:46.328Z,6.68
2022-12-27T09:50:20.575Z,6.73
2022-12-27T09:52:57.385Z,6.81
2022-12-27T09:55:41.582Z,6.87
2022-12-27T09:58:23.444Z,6.92
2022-12-27T10:00:52.770Z,6.93
2022-12-27T10:03:27.514Z,7.02
2022-12-27T10:06:07.631Z,7.05
2022-12-27T10:08:35.043Z,7.06
2022-12-27T10:11:38.646Z,7.10
2022-12-27T10:14:13.726Z,7.11
2022-12-27T10:16:53.752Z,7.15
2022-12-27T10:19:33.458Z,7.19
2022-12-27T10:22:09.453Z,7.27
2022-12-27T10:24:44.110Z,7.33
2022-12-27T10:27:25.641Z,7.37
2022-12-27T10:29:53.175Z,7.39
2022-12-27T10:32:24.248Z,7.39
2022-12-27T10:34:55.879Z,7.43
2022-12-27T10:37:25.477Z,7.46
2022-12-27T10:39:55.243Z,7.49
2022-12-27T10:42:32.079Z,7.49
2022-12-27T10:45:19.713Z,7.53
2022-12-27T10:47:47.346Z,7.57
2022-12-27T10:50:19.768Z,7.59
2022-12-27T10:52:50.216Z,7.57
2022-12-27T10:55:33.380Z,7.57
2022-12-27T10:58:21.492Z,7.63
2022-12-27T11:00:55.046Z,7.75
2022-12-27T11:03:26.326Z,7.90
2022-12-27T11:06:04.003Z,7.97
2022-12-27T11:08:30.606Z,8.10
2022-12-27T11:11:13.634Z,8.27
2022-12-27T11:13:40.479Z,8.41
2022-12-27T11:16:13.893Z,8.51
2022-12-27T11:18:45.004Z,8.57
2022-12-27T11:21:21.196Z,8.67
2022-12-27T11:23:54.480Z,8.80
2022-12-27T11:26:24.134Z,8.88
2022-12-27T11:28:54.541Z,8.91
2022-12-27T11:31:30.246Z,8.92
2022-12-27T11:33:58.468Z,8.86
2022-12-27T11:36:32.499Z,8.84
2022-12-27T11:39:00.600Z,8.88
2022-12-27T11:41:37.387Z,8.90
2022-12-27T11:44:10.648Z,8.94
2022-12-27T11:46:41.557Z,8.97
2022-12-27T11:49:12.125Z,8.99
2022-12-27T11:51:41.470Z,8.98
2022-12-27T11:54:13.856Z,8.92
2022-12-27T11:57:06.723Z,8.85
2022-12-27T11:59:33.258Z,8.80
2022-12-27T12:02:18.581Z,8.74
2022-12-27T12:04:57.291Z,8.71
2022-12-27T12:07:35.962Z,8.70
2022-12-27T12:10:21.039Z,8.75
2022-12-27T12:12:50.266Z,8.83
2022-12-27T12:15:35.246Z,8.93
2022-12-27T12:18:15.941Z,9.07
2022-12-27T12:20:47.174Z,9.15
2022-12-27T12:23:26.774Z,9.22
2022-12-27T12:26:21.752Z,9.30
2022-12-27T12:29:10.139Z,9.31
2022-12-27T12:31:55.183Z,9.32
2022-12-27T12:34:41.477Z,9.27
2022-12-27T12:37:20.273Z,9.27
2022-12-27T12:39:56.761Z,9.29
2022-12-27T12:42:48.291Z,9.30
2022-12-27T12:45:18.688Z,9.32
2022-12-27T12:47:56.745Z,9.36
2022-12-27T12:50:33.384Z,9.37
2022-12-27T12:53:13.742Z,9.38
2022-12-27T12:55:45.689Z,9.43
2022-12-27T12:58:12.891Z,9.43
2022-12-27T13:00:47.999Z,9.49
2022-12-27T13:03:43.348Z,9.55
2022-12-27T13:06:37.731Z,9.55
2022-12-27T13:09:17.109Z,9.62
2022-12-27T13:12:06.789Z,9.65
2022-12-27T13:14:49.711Z,9.67
2022-12-27T13:17:29.521Z,9.70
2022-12-27T13:20:28.459Z,9.77
2022-12-27T13:23:07.235Z,9.81
2022-12-27T13:25:50.945Z,9.80
2022-12-27T13:28:36.460Z,9.84
2022-12-27T13:31:05.707Z,9.86
2022-12-27T13:33:32.111Z,9.92
2022-12-27T13:36:09.926Z,9.98
2022-12-27T13:38:42.130Z,9.99
2022-12-27T13:41:28.054Z,10.03
2022-12-27T13:44:12.080Z,10.08
2022-12-27T13:46:57.340Z,10.05
2022-12-27T13:49:30.261Z,10.09
2022-12-27T13:52:02.321Z,10.16
2022-12-27T13:54:44.917Z,10.18
2022-12-27T13:57:26.627Z,10.19
2022-12-27T14:00:00.020Z,10.18
2022-12-27T14:02:32.767Z,10.15
2022-12-27T14:05:02.532Z,10.13
2022-12-27T14:07:38.184Z,10.06
2022-12-27T14:10:17.192Z,10.00
2022-12-27T14:12:55.089Z,9.98
2022-12-27T14:15:23.981Z,9.96
2022-12-27T14:17:53.445Z,9.94
2022-12-27T14:20:39.917Z,9.93
2022-12-27T14:23:16.465Z,9.87
2022-12-27T14:25:42.806Z,9.87
2022-12-27T14:28:18.538Z,9.84
2022-12-27T14:31:05.408Z,9.77
2022-12-27T14:33:50.556Z,9.73
2022-12-27T14:36:23.421Z,9.66
2022-12-27T14:39:19.217Z,9.62
2022-12-27T14:42:04.174Z,9.60
2022-12-27T14:44:42.845Z,9.52
2022-12-27T14:47:28.554Z,9.45
2022-12-27T14:50:15.382Z,9.40
2022-12-27T14:53:00.774Z,9.38
2022-12-27T14:55:35.939Z,9.39
2022-12-27T14:58:29.409Z,9.31
2022-12-27T15:01:29.604Z,9.29
2022-12-27T15:04:18.896Z,9.27
2022-12-27T15:07:23.443Z,9.24
2022-12-27T15:10:33.582Z,9.17
2022-12-27T15:13:11.787Z,9.08
2022-12-27T15:15:47.375Z,9.02
2022-12-27T15:19:07.431Z,8.96
2022-12-27T15:21:46.512Z,8.94
2022-12-27T15:24:52.662Z,8.87
2022-12-27T15:27:52.437Z,8.84
2022-12-27T15:31:03.734Z,8.75
2022-12-27T15:34:11.718Z,8.68
2022-12-27T15:36:43.069Z,8.68
2022-12-27T15:39:33.704Z,8.64
2022-12-27T15:42:00.207Z,8.65
2022-12-27T15:44:45.573Z,8.63
2022-12-27T15:47:35.470Z,8.58
2022-12-27T15:50:01.991Z,8.52
2022-12-27T15:52:39.254Z,8.52
2022-12-27T15:55:14.465Z,8.50
2022-12-27T15:57:44.177Z,8.39
2022-12-27T16:00:10.600Z,8.41
2022-12-27T16:02:49.220Z,8.37
2022-12-27T16:05:18.931Z,8.40
2022-12-27T16:07:51.411Z,8.37
2022-12-27T16:10:30.193Z,8.42
2022-12-27T16:13:15.522Z,8.39
2022-12-27T16:15:47.517Z,8.39
2022-12-27T16:18:17.610Z,8.41
2022-12-27T16:21:02.972Z,8.37
2022-12-27T16:23:31.940Z,8.35
2022-12-27T16:26:04.420Z,8.31
2022-12-27T16:28:32.102Z,8.29
2022-12-27T16:31:00.838Z,8.25
2022-12-27T16:33:27.442Z,8.24
2022-12-27T16:36:04.332Z,8.19
2022-12-27T16:38:32.522Z,8.20
2022-12-27T16:41:12.800Z,8.16
2022-12-27T16:43:49.130Z,8.13
2022-12-27T16:46:19.666Z,8.08
2022-12-27T16:48:46.285Z,8.15
2022-12-27T16:51:16.069Z,8.32
2022-12-27T16:53:58.069Z,8.33
2022-12-27T16:56:29.814Z,8.20
2022-12-27T16:58:56.835Z,8.15
2022-12-27T17:01:26.669Z,8.14
2022-12-27T17:03:54.395Z,8.10
2022-12-27T17:06:32.708Z,8.12
2022-12-27T17:09:10.449Z,8.12
2022-12-27T17:11:41.387Z,8.09
2022-12-27T17:14:27.913Z,8.06
2022-12-27T17:17:09.125Z,8.05
2022-12-27T17:19:38.598Z,7.95
2022-12-27T17:22:10.673Z,7.96
2022-12-27T17:24:37.148Z,7.96
2022-12-27T17:27:16.112Z,7.90
2022-12-27T17:29:49.012Z,7.87
2022-12-27T17:32:34.434Z,7.85
2022-12-27T17:35:00.853Z,7.78
2022-12-27T17:37:30.530Z,7.76
2022-12-27T17:40:12.244Z,7.71
2022-12-27T17:43:02.172Z,7.70
2022-12-27T17:45:34.246Z,7.72
2022-12-27T17:48:12.606Z,7.74
2022-12-27T17:50:42.205Z,7.65
2022-12-27T17:53:30.385Z,7.62
2022-12-27T17:56:20.208Z,7.58
2022-12-27T17:58:46.676Z,7.55
2022-12-27T18:01:13.765Z,7.49
2022-12-27T18:03:42.974Z,7.46
2022-12-27T18:06:09.465Z,7.49
2022-12-27T18:08:36.960Z,7.41
2022-12-27T18:11:05.189Z,7.43
2022-12-27T18:13:33.149Z,7.41
2022-12-27T18:16:00.993Z,7.43
2022-12-27T18:18:31.916Z,7.47
2022-12-27T18:20:59.947Z,7.52
2022-12-27T18:23:26.820Z,7.49
2022-12-27T18:25:53.257Z,7.48
2022-12-27T18:28:33.550Z,7.53
2022-12-27T18:31:03.466Z,7.55
2022-12-27T18:33:48.855Z,7.55
2022-12-27T18:36:34.302Z,7.65
2022-12-27T18:39:24.097Z,7.68
2022-12-27T18:41:51.855Z,7.71
2022-12-27T18:44:26.581Z,7.73
2022-12-27T18:46:55.014Z,7.66
2022-12-27T18:49:24.144Z,7.65
2022-12-27T18:51:51.018Z,7.67
2022-12-27T18:54:29.835Z,7.61
2022-12-27T18:56:57.297Z,7.57
2022-12-27T18:59:27.786Z,7.62
2022-12-27T19:01:59.401Z,7.52
2022-12-27T19:04:28.383Z,7.57
2022-12-27T19:06:54.977Z,7.58
2022-12-27T19:09:23.569Z,7.52
2022-12-27T19:11:55.451Z,7.48
2022-12-27T19:14:22.751Z,7.44
2022-12-27T19:16:52.640Z,7.42
2022-12-27T19:19:24.475Z,7.39
2022-12-27T19:21:50.959Z,7.41
2022-12-27T19:24:28.637Z,7.34
2022-12-27T19:26:55.926Z,7.39
2022-12-27T19:29:23.570Z,7.37
2022-12-27T19:32:17.623Z,7.36
2022-12-27T19:34:45.863Z,7.28
2022-12-27T19:37:12.365Z,7.27
2022-12-27T19:39:40.078Z,7.23
2022-12-27T19:42:07.879Z,7.19
2022-12-27T19:44:34.389Z,7.19
2022-12-27T19:47:00.789Z,7.18
2022-12-27T19:49:44.629Z,7.10
2022-12-27T19:52:26.937Z,7.10
2022-12-27T19:54:58.126Z,7.08
2022-12-27T19:57:25.117Z,6.97
2022-12-27T19:59:52.388Z,7.00
2022-12-27T20:02:21.130Z,7.05
2022-12-27T20:04:48.381Z,7.04
2022-12-27T20:07:23.551Z,7.05
2022-12-27T20:09:50.216Z,7.03
2022-12-27T20:12:16.936Z,7.00
2022-12-27T20:14:43.299Z,6.95
2022-12-27T20:17:10.012Z,6.98
2022-12-27T20:19:36.360Z,6.98
2022-12-27T20:22:02.797Z,6.97
2022-12-27T20:24:31.399Z,6.97
2022-12-27T20:26:57.742Z,6.96
2022-12-27T20:29:24.231Z,6.97
2022-12-27T20:31:52.083Z,6.92
2022-12-27T20:34:18.624Z,6.85
2022-12-27T20:36:45.075Z,6.82
2022-12-27T20:39:11.444Z,6.79
2022-12-27T20:41:37.832Z,6.78
2022-12-27T20:44:04.378Z,6.87
2022-12-27T20:46:50.999Z,6.86
2022-12-27T20:49:35.910Z,6.84
2022-12-27T20:52:24.305Z,6.87
2022-12-27T20:55:13.694Z,6.84
2022-12-27T20:57:43.360Z,6.83
2022-12-27T21:00:11.243Z,6.82
2022-12-27T21:02:38.967Z,6.76
2022-12-27T21:05:06.228Z,6.76
2022-12-27T21:07:32.671Z,6.74
2022-12-27T21:09:59.092Z,6.77
2022-12-27T21:12:25.476Z,6.79
2022-12-27T21:14:52.274Z,6.79
2022-12-27T21:17:18.733Z,6.82
2022-12-27T21:19:45.155Z,6.84
2022-12-27T21:22:11.532Z,6.82
2022-12-27T21:24:38.051Z,6.80
2022-12-27T21:27:04.666Z,6.80
2022-12-27T21:29:31.023Z,6.79
2022-12-27T21:31:57.368Z,6.75
2022-12-27T21:34:23.878Z,6.81
2022-12-27T21:36:51.872Z,6.77
2022-12-27T21:39:18.285Z,6.77
2022-12-27T21:41:44.866Z,6.77
2022-12-27T21:44:11.244Z,6.81
2022-12-27T21:46:42.107Z,6.80
2022-12-27T21:49:13.119Z,6.86
2022-12-27T21:51:41.018Z,6.89
2022-12-27T21:54:07.991Z,6.89
2022-12-27T21:56:35.652Z,6.95
2022-12-27T21:59:05.334Z,6.98
2022-12-27T22:01:51.182Z,6.96
2022-12-27T22:04:20.249Z,7.01
2022-12-27T22:06:47.896Z,7.00
2022-12-27T22:09:15.429Z,7.03
2022-12-27T22:11:42.229Z,7.01
2022-12-27T22:14:09.045Z,7.01
2022-12-27T22:16:36.742Z,7.03
2022-12-27T22:19:08.080Z,6.99
2022-12-27T22:21:34.961Z,7.01
2022-12-27T22:24:02.181Z,7.03
2022-12-27T22:26:30.284Z,7.06
2022-12-27T22:28:57.200Z,7.04
2022-12-27T22:31:25.304Z,7.04
2022-12-27T22:34:05.039Z,7.03
2022-12-27T22:36:31.593Z,7.01
2022-12-27T22:38:58.690Z,6.97
2022-12-27T22:41:29.686Z,6.97
2022-12-27T22:43:57.493Z,7.00
2022-12-27T22:46:24.076Z,7.01
2022-12-27T22:48:55.039Z,7.03
2022-12-27T22:51:24.912Z,6.98
2022-12-27T22:53:51.615Z,7.02
2022-12-27T22:56:19.493Z,7.04
2022-12-27T22:58:46.118Z,7.07
2022-12-27T23:01:17.432Z,7.10
2022-12-27T23:03:44.261Z,7.15
2022-12-27T23:06:13.855Z,7.13
2022-12-27T23:08:41.290Z,7.20
2022-12-27T23:11:12.566Z,7.23
2022-12-27T23:13:39.049Z,7.19
2022-12-27T23:16:05.672Z,7.22
2022-12-27T23:18:32.168Z,7.26
2022-12-27T23:21:21.557Z,7.29
2022-12-27T23:23:45.614Z,7.34
2022-12-27T23:26:16.730Z,7.35
2022-12-27T23:28:43.817Z,7.38
2022-12-27T23:31:11.252Z,7.42
2022-12-27T23:33:38.363Z,7.42
2022-12-27T23:36:04.819Z,7.46
2022-12-27T23:38:31.225Z,7.47
2022-12-27T23:41:02.170Z,7.51
2022-12-27T23:43:51.810Z,7.51
2022-12-27T23:46:18.684Z,7.54
2022-12-27T23:48:45.666Z,7.54
2022-12-27T23:51:12.915Z,7.54
2022-12-27T23:53:39.566Z,7.57
2022-12-27T23:56:06.114Z,7.57
2022-12-27T23:58:32.911Z,7.53
